createdAt,value
2022-10-16T00:02:26.622Z,4.12
2022-10-16T00:07:33.075Z,3.46
2022-10-16T00:12:39.255Z,3.56
2022-10-16T00:17:45.519Z,3.56
2022-10-16T00:22:51.921Z,3.30
2022-10-16T00:27:58.938Z,3.37
2022-10-16T00:33:05.187Z,3.22
2022-10-16T00:38:11.401Z,3.49
2022-10-16T00:43:17.466Z,3.16
2022-10-16T00:48:23.629Z,3.18
2022-10-16T00:53:29.716Z,3.17
2022-10-16T00:58:35.915Z,3.13
2022-10-16T01:03:42.002Z,3.34
2022-10-16T01:08:49.861Z,2.78
2022-10-16T01:13:56.270Z,3.06
2022-10-16T01:19:02.882Z,2.80
2022-10-16T01:24:08.975Z,2.90
2022-10-16T01:29:15.261Z,2.66
2022-10-16T01:34:21.361Z,3.16
2022-10-16T01:39:27.829Z,3.05
2022-10-16T01:44:33.898Z,2.86
2022-10-16T01:49:40.132Z,3.48
2022-10-16T01:54:46.193Z,2.75
2022-10-16T01:59:52.470Z,3.00
2022-10-16T02:04:59.322Z,2.50
2022-10-16T02:10:08.704Z,2.56
2022-10-16T02:15:14.757Z,2.34
2022-10-16T02:20:21.331Z,2.39
2022-10-16T02:25:27.387Z,2.56
2022-10-16T02:30:33.554Z,2.50
2022-10-16T02:35:39.595Z,2.61
2022-10-16T02:40:45.744Z,2.54
2022-10-16T02:45:51.806Z,2.45
2022-10-16T02:50:57.985Z,2.49
2022-10-16T02:56:04.040Z,2.28
2022-10-16T03:01:10.301Z,2.39
2022-10-16T03:06:16.352Z,2.44
2022-10-16T03:11:22.599Z,2.66
2022-10-16T03:16:28.756Z,2.27
2022-10-16T03:21:35.258Z,2.38
2022-10-16T03:26:41.418Z,2.34
2022-10-16T03:31:47.575Z,2.37
2022-10-16T03:36:53.637Z,2.15
2022-10-16T03:41:59.910Z,2.37
2022-10-16T03:47:05.999Z,2.35
2022-10-16T03:52:12.516Z,2.46
2022-10-16T03:57:18.615Z,2.55
2022-10-16T04:02:24.793Z,2.71
2022-10-16T04:07:31.151Z,3.00
2022-10-16T04:12:38.205Z,2.97
2022-10-16T04:17:44.711Z,3.43
2022-10-16T04:22:50.874Z,3.79
2022-10-16T04:27:57.246Z,3.99
2022-10-16T04:33:03.505Z,3.79
2022-10-16T04:38:09.568Z,3.79
2022-10-16T04:43:15.872Z,4.41
2022-10-16T04:48:22.210Z,4.60
2022-10-16T04:53:28.369Z,4.76
2022-10-16T04:58:34.469Z,4.91
2022-10-16T05:03:40.863Z,5.06
2022-10-16T05:08:47.004Z,5.79
2022-10-16T05:13:55.755Z,6.66
2022-10-16T05:19:22.398Z,6.19
2022-10-16T05:24:04.625Z,6.86
2022-10-16T05:29:10.853Z,7.05
2022-10-16T05:34:17.482Z,7.17
2022-10-16T05:39:23.884Z,6.74
2022-10-16T05:44:30.156Z,7.41
2022-10-16T05:49:39.127Z,7.28
2022-10-16T05:54:42.250Z,7.57
2022-10-16T05:59:48.315Z,7.62
2022-10-16T06:04:54.490Z,7.68
2022-10-16T06:10:00.569Z,7.47
2022-10-16T06:15:06.807Z,7.27
2022-10-16T06:20:12.923Z,7.14
2022-10-16T06:25:19.406Z,7.26
2022-10-16T06:30:25.462Z,6.80
2022-10-16T06:35:31.684Z,7.04
2022-10-16T06:40:37.731Z,6.58
2022-10-16T06:45:44.216Z,6.69
2022-10-16T06:50:50.280Z,6.00
2022-10-16T06:55:56.850Z,6.26
2022-10-16T07:01:03.010Z,5.87
2022-10-16T07:06:09.212Z,5.46
2022-10-16T07:11:15.271Z,5.04
2022-10-16T07:16:21.462Z,5.36
2022-10-16T07:21:27.521Z,5.45
2022-10-16T07:26:34.012Z,5.24
2022-10-16T07:31:40.182Z,5.17
2022-10-16T07:36:46.393Z,5.06
2022-10-16T07:41:52.458Z,4.57
2022-10-16T07:46:58.925Z,4.39
2022-10-16T07:52:06.288Z,4.35
2022-10-16T07:57:12.896Z,4.07
2022-10-16T08:02:19.042Z,3.54
2022-10-16T08:07:25.537Z,3.35
2022-10-16T08:12:30.806Z,3.38
2022-10-16T08:17:42.270Z,3.15
2022-10-16T08:22:38.665Z,3.05
2022-10-16T08:27:44.891Z,2.83
2022-10-16T08:32:51.378Z,2.82
2022-10-16T08:37:57.617Z,2.69
2022-10-16T08:43:03.698Z,2.32
2022-10-16T08:48:09.956Z,2.71
2022-10-16T08:53:16.087Z,2.43
2022-10-16T08:58:22.358Z,2.52
2022-10-16T09:03:29.172Z,2.32
2022-10-16T09:08:35.304Z,2.08
2022-10-16T09:13:41.455Z,2.28
2022-10-16T09:18:47.641Z,1.98
2022-10-16T09:23:53.783Z,1.94
2022-10-16T09:28:59.997Z,2.03
2022-10-16T09:34:05.961Z,2.00
2022-10-16T09:39:12.499Z,1.99
2022-10-16T09:44:18.941Z,1.90
2022-10-16T09:49:25.093Z,1.75
2022-10-16T09:54:31.173Z,1.85
2022-10-16T09:59:37.401Z,1.50
2022-10-16T10:04:43.529Z,1.46
2022-10-16T10:09:49.694Z,1.49
2022-10-16T10:14:56.184Z,1.36
2022-10-16T10:20:02.734Z,1.40
2022-10-16T10:25:09.133Z,1.25
2022-10-16T10:30:18.500Z,1.31
2022-10-16T10:35:21.109Z,1.19
2022-10-16T10:40:27.588Z,1.26
2022-10-16T10:45:33.737Z,1.65
2022-10-16T10:50:40.262Z,1.46
2022-10-16T10:55:46.659Z,1.93
2022-10-16T11:00:52.941Z,1.57
2022-10-16T11:05:58.975Z,1.63
2022-10-16T11:11:05.235Z,1.75
2022-10-16T11:16:11.436Z,1.81
2022-10-16T11:21:17.891Z,1.67
2022-10-16T11:26:23.953Z,1.74
2022-10-16T11:31:30.958Z,1.82
2022-10-16T11:36:37.782Z,1.88
2022-10-16T11:41:44.524Z,1.57
2022-10-16T11:46:59.214Z,1.62
2022-10-16T11:51:56.216Z,2.23
2022-10-16T11:57:02.306Z,1.90
2022-10-16T12:02:08.517Z,1.66
2022-10-16T12:07:14.686Z,1.81
2022-10-16T12:12:20.808Z,1.78
2022-10-16T12:17:26.942Z,1.56
2022-10-16T12:22:35.824Z,1.58
2022-10-16T12:27:38.877Z,1.91
2022-10-16T12:32:46.721Z,1.82
2022-10-16T12:37:50.974Z,1.91
2022-10-16T12:42:57.082Z,1.86
2022-10-16T12:48:03.539Z,1.62
2022-10-16T12:53:09.954Z,1.97
2022-10-16T12:58:16.105Z,1.59
2022-10-16T13:03:22.345Z,2.08
2022-10-16T13:08:28.405Z,1.56
2022-10-16T13:13:35.100Z,1.90
2022-10-16T13:18:41.537Z,1.77
2022-10-16T13:28:53.498Z,1.66
2022-10-16T13:33:59.717Z,1.55
2022-10-16T13:39:06.103Z,2.01
2022-10-16T13:44:12.273Z,1.91
2022-10-16T13:49:18.325Z,1.82
2022-10-16T13:54:24.536Z,1.71
2022-10-16T13:59:30.687Z,16.57
2022-10-16T14:04:36.902Z,2.13
2022-10-16T14:14:49.595Z,1.64
2022-10-16T14:19:59.605Z,2.64
2022-10-16T14:25:02.693Z,1.94
2022-10-16T14:30:08.773Z,2.01
2022-10-16T14:35:15.032Z,1.58
2022-10-16T14:40:21.502Z,1.76
2022-10-16T14:45:27.778Z,1.80
2022-10-16T14:50:34.273Z,1.84
2022-10-16T14:55:40.461Z,1.80
2022-10-16T15:00:46.618Z,2.23
2022-10-16T15:05:52.996Z,1.93
2022-10-16T15:10:59.470Z,1.69
2022-10-16T15:16:05.705Z,1.78
2022-10-16T15:21:12.572Z,1.63
2022-10-16T15:26:18.769Z,1.71
2022-10-16T15:31:24.888Z,1.55
2022-10-16T15:36:31.034Z,1.93
2022-10-16T15:41:37.141Z,2.07
2022-10-16T15:46:43.274Z,2.16
2022-10-16T15:51:49.453Z,1.96
2022-10-16T15:56:56.062Z,1.66
2022-10-16T16:02:02.246Z,1.81
2022-10-16T16:07:09.112Z,1.71
2022-10-16T16:12:15.198Z,1.85
2022-10-16T16:17:21.504Z,1.98
2022-10-16T16:22:28.254Z,2.22
2022-10-16T16:27:34.515Z,2.02
2022-10-16T16:32:40.626Z,1.73
2022-10-16T16:37:47.628Z,1.87
2022-10-16T16:42:53.745Z,1.95
2022-10-16T16:48:00.026Z,1.91
2022-10-16T16:53:06.180Z,2.37
2022-10-16T16:58:12.387Z,2.05
2022-10-16T17:03:18.482Z,2.02
2022-10-16T17:08:25.115Z,2.06
2022-10-16T17:13:31.533Z,2.63
2022-10-16T17:18:38.203Z,3.07
2022-10-16T17:23:44.634Z,3.76
2022-10-16T17:28:50.923Z,4.02
2022-10-16T17:33:57.054Z,4.01
2022-10-16T17:39:03.317Z,4.53
2022-10-16T17:44:09.561Z,5.55
2022-10-16T17:49:15.865Z,5.82
2022-10-16T17:54:21.980Z,6.02
2022-10-16T17:59:28.509Z,5.95
2022-10-16T18:04:34.661Z,6.77
2022-10-16T18:09:56.221Z,8.12
2022-10-16T18:14:46.935Z,8.51
2022-10-16T18:19:53.134Z,7.59
2022-10-16T18:24:59.565Z,8.09
2022-10-16T18:30:05.834Z,8.20
2022-10-16T18:40:17.846Z,8.31
2022-10-16T18:45:24.233Z,7.20
2022-10-16T18:50:30.532Z,7.63
2022-10-16T18:55:36.998Z,8.54
2022-10-16T19:00:43.497Z,8.77
2022-10-16T19:05:49.588Z,8.49
2022-10-16T19:10:56.193Z,8.07
2022-10-16T19:16:19.465Z,8.39
2022-10-16T19:21:08.176Z,8.68
2022-10-16T19:26:14.274Z,8.07
2022-10-16T19:31:20.635Z,7.76
2022-10-16T19:36:26.751Z,7.69
2022-10-16T19:41:33.409Z,7.02
2022-10-16T19:46:39.476Z,6.93
2022-10-16T19:51:45.717Z,7.28
2022-10-16T19:56:52.734Z,7.34
2022-10-16T20:01:59.431Z,6.66
2022-10-16T20:07:06.152Z,6.21
2022-10-16T20:12:13.824Z,6.64
2022-10-16T20:17:20.670Z,6.37
2022-10-16T20:22:27.445Z,7.03
2022-10-16T20:27:33.784Z,6.38
2022-10-16T20:32:39.990Z,6.26
2022-10-16T20:37:46.465Z,6.91
2022-10-16T20:42:52.628Z,6.55
2022-10-16T20:47:58.842Z,6.01
2022-10-16T20:53:06.153Z,7.08
2022-10-16T20:58:12.303Z,7.20
2022-10-16T21:03:18.454Z,6.54
2022-10-16T21:08:24.549Z,7.24
2022-10-16T21:13:31.231Z,6.42
2022-10-16T21:18:39.681Z,6.01
2022-10-16T21:23:43.075Z,5.44
2022-10-16T21:28:49.258Z,5.53
2022-10-16T21:33:55.520Z,5.21
2022-10-16T21:39:01.979Z,5.18
2022-10-16T21:44:08.456Z,5.55
2022-10-16T21:49:14.972Z,5.10
2022-10-16T21:54:21.241Z,5.09
2022-10-16T21:59:27.430Z,4.94
2022-10-16T22:04:33.752Z,5.08
2022-10-16T22:09:39.902Z,4.87
2022-10-16T22:14:46.206Z,4.85
2022-10-16T22:19:52.347Z,4.97
2022-10-16T22:24:58.584Z,5.16
2022-10-16T22:30:04.701Z,5.45
2022-10-16T22:35:11.245Z,5.70
2022-10-16T22:40:17.378Z,5.69
2022-10-16T22:45:23.533Z,5.35
2022-10-16T22:50:29.863Z,5.27
2022-10-16T22:55:36.825Z,5.32
2022-10-16T23:00:43.091Z,5.34
2022-10-16T23:05:52.158Z,5.59
2022-10-16T23:10:56.180Z,5.81
2022-10-16T23:16:02.405Z,5.64
2022-10-16T23:21:08.641Z,6.64
2022-10-16T23:26:14.778Z,6.46
2022-10-16T23:31:20.824Z,6.74
2022-10-16T23:36:27.327Z,6.47
2022-10-16T23:41:33.468Z,6.52
2022-10-16T23:46:39.725Z,6.99
2022-10-16T23:51:45.801Z,6.26
2022-10-16T23:56:52.067Z,6.86
